• Join FlightAware (Why Join?)
  • Login
  • US Flag 
10:01AM EDT


 

Airport Tracker/Info


-or-


 

Live Flight TrackerFlight Track Log ✈ N100DB ✈ 13-May-2013 ✈ KOSH - KEZS

Flight Track Log - Related Links

Times and Time Zones

All times are in EDT time to prevent confusion due to time zone crossing. See the N100DB flight status page for this flight to view local times or setup timezone preferences in your user account.

Time Position Orientation Groundspeed Altitude Reporting Facility
EDT Latitude Longitude Course Direction KTS MPH feet Rate Location/Type
10:13AM 44.1861 -88.9086 10° North 139 160 5,500  Level Minneapolis Center
10:14AM 44.2278 -88.8869 20° North 138 159 5,500  Level Minneapolis Center
10:15AM 44.2636 -88.8675 21° North 137 158 5,500  Level Minneapolis Center
10:16AM 44.1911 -88.5085 10° North  Level Estimated
10:16AM 44.2997 -88.8475 22° Northeast 138 159 5,500  Level Minneapolis Center
10:17AM 44.2255 -88.5004 10° North  Level Estimated
10:17AM 44.3361 -88.8297 19° North 139 160 5,500  Level Minneapolis Center
10:18AM 44.2599 -88.4923 10° North  Level Estimated
10:18AM 44.3711 -88.8111 21° North 136 157 5,500  Level Minneapolis Center
10:19AM 44.4197 -88.7872 19° North 137 158 5,500  Level Minneapolis Center
10:20AM 44.4564 -88.7717 17° North 138 159 5,500  Level Minneapolis Center
10:21AM 44.4992 -88.7519 18° North 138 159 5,500  Level Minneapolis Center
10:22AM 44.5356 -88.7428 10° North 136 157 5,500  Level Minneapolis Center
10:23AM 44.5722 -88.7289 15° North 136 157 5,500  Level Minneapolis Center
10:25AM 44.6142 -88.7094 18° North 135 155 5,500  Level Minneapolis Center
10:26AM 44.6508 -88.6950 16° North 136 157 5,500  Level Minneapolis Center
10:27AM 44.6878 -88.6803 16° North 136 157 5,500  Level Minneapolis Center
10:28AM 44.7244 -88.6650 16° North 137 158 5,500  Level Minneapolis Center
10:29AM 44.7622 -88.6508 15° North 139 160 5,500  Level Minneapolis Center
10:30AM 44.8000 -88.6403 11° North 140 161 5,500  Level Minneapolis Center
10:31AM 44.8439 -88.6231 16° North 140 161 5,500  Level Minneapolis Center
10:32AM 44.8819 -88.6106 13° North 140 161 5,500  Level Minneapolis Center
10:33AM 44.9197 -88.5994 12° North 140 161 5,500  Level Minneapolis Center
10:34AM 44.9600 -88.5892 10° North 147 169 5,500  Level Minneapolis Center
10:35AM 44.9992 -88.5747 15° North 146 168 5,600  Climbing Minneapolis Center
10:36AM 45.0428 -88.5628 11° North 145 167 5,500 -60 Descending Minneapolis Center
10:37AM 45.0683 -88.5522 16° North 140 161 5,500  Level Minneapolis Center
10:38AM 45.1225 -88.5281 17° North 145 167 5,500  Level Minneapolis Center
10:39AM 45.1611 -88.5097 19° North 145 167 5,500  Level Minneapolis Center
10:40AM 45.1986 -88.4950 15° North 143 165 5,600  Climbing Minneapolis Center
10:41AM 45.2392 -88.4797 15° North 147 169 5,500 -60 Descending Minneapolis Center
10:42AM 45.2778 -88.4603 20° North 147 169 5,500 -180 Level Minneapolis Center
10:43AM 45.3175 -88.4369 22° Northeast 142 163 5,200 -540 Descending Minneapolis Center
10:44AM 45.3536 -88.4097 28° Northeast 145 167 4,500 -600 Descending Minneapolis Center
10:45AM 45.3972 -88.4053 North 156 180 4,000 -540 Descending Minneapolis Center
10:46AM 45.4378 -88.4033 North 154 177 3,500 -420 Descending Minneapolis Center
10:47AM 45.4761 -88.4053 358° North 148 170 3,200 -180 Descending Minneapolis Center
10:48AM 45.5206 -88.4108 355° North 140 161 3,200  Level Minneapolis Center
10:49AM 45.5592 -88.4178 353° North 139 160 3,200  Level Minneapolis Center
10:50AM 45.5981 -88.4236 354° North 139 160 3,200  Level Minneapolis Center
10:51AM 45.6286 -88.4258 357° North 139 160 3,200 -60 Level Minneapolis Center
10:52AM 45.6767 -88.4278 358° North 141 162 3,100  Descending Minneapolis Center
10:53AM 45.7158 -88.4294 358° North 141 162 3,200 60 Climbing Minneapolis Center
10:54AM 45.7422 -88.4600 321° Northwest 140 161 3,300  Climbing Minneapolis Center
10:55AM 45.7108 -88.4944 217° Southwest 141 162 3,200  Descending Minneapolis Center
10:57AM 45.6772 -88.5189 207° Southwest 157 181 3,300  Climbing Minneapolis Center
10:58AM 45.6808 -88.4686 84° East 156 180 3,200 -60 Descending Minneapolis Center
10:59AM 45.7156 -88.4364 33° Northeast 152 175 3,200  Level Minneapolis Center
11:00AM 45.7475 -88.4033 36° Northeast 148 170 3,300  Climbing Minneapolis Center
11:01AM 45.7206 -88.3753 144° Southeast 153 176 3,200 -60 Descending Minneapolis Center
11:02AM 45.6736 -88.3711 176° South 146 168 3,200  Level Minneapolis Center
11:03AM 45.6747 -88.4011 273° West 150 173 3,200  Level Minneapolis Center
11:04AM 45.7106 -88.4178 342° North 142 163 3,200  Level Minneapolis Center
11:05AM 45.7492 -88.4161 North 137 158 3,200  Level Minneapolis Center
11:06AM 45.7867 -88.4172 359° North 136 157 3,300  Climbing Minneapolis Center
11:07AM 45.7764 -88.4656 253° West 137 158 3,300 -60 Level Minneapolis Center
11:08AM 45.7522 -88.5042 228° Southwest 132 152 3,200 -120 Descending Minneapolis Center
11:09AM 45.7083 -88.5111 186° South 145 167 3,100  Descending Minneapolis Center
11:10AM 45.7178 -88.4689 72° East 151 174 3,200  Climbing Minneapolis Center
11:11AM 45.7386 -88.4356 48° Northeast 148 170 3,200  Level Minneapolis Center
11:12AM 45.7764 -88.4233 13° North 143 165 3,200  Level Minneapolis Center
11:13AM 45.7572 -88.4656 237° Southwest 139 160 3,200  Level Minneapolis Center
11:14AM 45.7272 -88.5000 219° Southwest 137 158 3,200  Level Minneapolis Center
11:15AM 45.6953 -88.5344 217° Southwest 140 161 3,200  Level Minneapolis Center
11:16AM 45.6914 -88.4842 96° East 151 174 3,200  Level Minneapolis Center
11:17AM 45.7253 -88.4494 36° Northeast 149 171 3,200  Level Minneapolis Center
11:18AM 45.7583 -88.4164 35° Northeast 147 169 3,200 -60 Level Minneapolis Center
11:19AM 45.7789 -88.3725 56° Northeast 155 178 3,100 -60 Descending Minneapolis Center
11:20AM 45.7411 -88.3644 172° South 145 167 3,100  Level Minneapolis Center
11:21AM 45.7011 -88.3628 178° South 142 163 3,100  Level Minneapolis Center
11:22AM 45.6939 -88.3958 253° West 145 167 3,100  Level Minneapolis Center
11:23AM 45.7297 -88.4097 345° North 136 157 3,100  Level Minneapolis Center
11:24AM 45.7767 -88.4061 North 137 158 3,100  Level Minneapolis Center
11:25AM 45.8172 -88.4033 North 141 162 3,100 -60 Level Minneapolis Center
11:26AM 45.7964 -88.4461 235° Southwest 147 169 3,000  Descending Minneapolis Center
11:27AM 45.7692 -88.4875 227° Southwest 145 167 3,100  Climbing Minneapolis Center
11:28AM 45.7467 -88.4697 151° Southeast 146 168 3,000 -60 Descending Minneapolis Center
11:29AM 45.7747 -88.4272 47° Northeast 145 167 3,000  Level Minneapolis Center
11:30AM 45.8061 -88.3892 40° Northeast 147 169 3,000  Level Minneapolis Center
11:32AM 45.8356 -88.3833 North 164 189 3,100  Climbing Minneapolis Center
11:33AM 45.8061 -88.4336 230° Southwest 147 169 3,000 -60 Descending Minneapolis Center
11:34AM 45.7794 -88.4717 225° Southwest 141 162 3,000  Level Minneapolis Center
11:35AM 45.7503 -88.4706 178° South 146 168 3,100  Climbing Minneapolis Center
11:36AM 45.7767 -88.4258 50° Northeast 150 173 3,000 -60 Descending Minneapolis Center
11:37AM 45.8139 -88.3794 41° Northeast 149 171 3,000  Level Minneapolis Center
11:38AM 45.8044 -88.3392 109° East 142 163 3,100  Climbing Minneapolis Center
11:39AM 45.7672 -88.3389 180° South 136 157 3,000  Descending Minneapolis Center
11:40AM 45.7319 -88.3472 189° South 145 167 3,100  Climbing Minneapolis Center
11:41AM 45.7581 -88.3792 320° Northwest 140 161 3,100 -60 Level Minneapolis Center
11:42AM 45.7983 -88.3883 351° North 142 163 3,000  Descending Minneapolis Center
11:43AM 45.8331 -88.4036 343° North 156 180 3,100  Climbing Minneapolis Center
11:44AM 45.7961 -88.4200 197° South 150 173 3,000 -60 Descending Minneapolis Center
11:45AM 45.7556 -88.4236 184° South 147 169 3,000  Level Minneapolis Center
11:46AM 45.7461 -88.3942 115° Southeast 172 198 3,000  Level Minneapolis Center
11:47AM 45.7828 -88.3861 North 153 176 3,100  Climbing Minneapolis Center
11:48AM 45.8208 -88.3856 North 143 165 3,100 -60 Level Minneapolis Center
11:49AM 45.8594 -88.3867 359° North 140 161 3,000 -60 Descending Minneapolis Center
11:50AM 45.8931 -88.4122 332° Northwest 138 159 3,000  Level Minneapolis Center
11:51AM 45.9156 -88.3731 50° Northeast 153 176 3,100  Climbing Minneapolis Center
11:52AM 45.8694 -88.3869 192° South 159 183 3,000 -60 Descending Minneapolis Center
11:53AM 45.8206 -88.3853 179° South 150 173 3,000  Level Minneapolis Center
11:54AM 45.7819 -88.3878 183° South 145 167 3,000  Level Minneapolis Center
11:55AM 45.7467 -88.4075 201° Southwest 139 160 3,000  Level Minneapolis Center
11:56AM 45.7372 -88.3833 119° Southeast 158 182 3,000  Level Minneapolis Center
11:57AM 45.7750 -88.3858 357° North 141 162 3,100  Climbing Minneapolis Center
11:58AM 45.8156 -88.3864 359° North 143 165 3,000  Descending Minneapolis Center
12:00PM 45.8564 -88.3853 North 145 167 3,100  Climbing Minneapolis Center
12:01PM 45.8336 -88.3719 158° South 147 169 3,100  Level Minneapolis Center
12:02PM 45.7967 -88.3950 204° Southwest 144 166 3,100 180 Level Minneapolis Center
12:03PM 45.7561 -88.4039 189° South 147 169 3,500 540 Climbing Minneapolis Center
12:04PM 45.7219 -88.4050 181° South 136 157 4,300 480 Climbing Minneapolis Center
12:05PM 45.6875 -88.4092 185° South 126 145 4,600 120 Climbing Minneapolis Center
12:06PM 45.6381 -88.4172 186° South 141 162 4,600  Level Minneapolis Center
12:07PM 45.5964 -88.4267 189° South 147 169 4,600  Level Minneapolis Center
12:08PM 45.5458 -88.4342 186° South 152 175 4,600  Level Minneapolis Center
12:09PM 45.5044 -88.4436 189° South 151 174 4,600  Level Minneapolis Center
12:10PM 45.4639 -88.4489 185° South 149 171 4,600  Level Minneapolis Center
12:11PM 45.4219 -88.4553 186° South 149 171 4,600  Level Minneapolis Center
12:12PM 45.3808 -88.4586 183° South 150 173 4,600  Level Minneapolis Center
12:13PM 45.3389 -88.4689 190° South 151 174 4,600  Level Minneapolis Center
12:14PM 45.2917 -88.4781 188° South 150 173 4,600  Level Minneapolis Center
12:15PM 45.2494 -88.4847 186° South 151 174 4,600  Level Minneapolis Center
12:16PM 45.2086 -88.4928 188° South 151 174 4,600  Level Minneapolis Center
12:17PM 45.1636 -88.4981 185° South 151 174 4,600  Level Minneapolis Center
12:18PM 45.1214 -88.5036 185° South 151 174 4,600  Level Minneapolis Center
12:19PM 45.0792 -88.5117 188° South 151 174 4,600  Level Minneapolis Center
12:20PM 45.0314 -88.5200 187° South 152 175 4,600  Level Minneapolis Center
12:21PM 44.9922 -88.5269 187° South 152 175 4,600  Level Minneapolis Center
12:23PM 44.9506 -88.5232 188° South  Level FlightAware Approximate